createdAt,value
2022-12-24T00:00:36.049Z,25.37
2022-12-24T00:10:38.214Z,25.20
2022-12-24T00:20:47.349Z,26.40
2022-12-24T00:30:51.944Z,26.13
2022-12-24T00:41:04.444Z,25.87
2022-12-24T00:51:08.818Z,25.30
2022-12-24T01:01:11.418Z,25.13
2022-12-24T01:11:15.518Z,25.33
2022-12-24T01:21:17.662Z,27.40
2022-12-24T01:31:20.269Z,27.27
2022-12-24T01:41:43.922Z,28.30
2022-12-24T01:51:55.891Z,27.53
2022-12-24T02:02:01.756Z,28.70
2022-12-24T02:12:05.591Z,27.90
2022-12-24T02:22:15.800Z,26.07
2022-12-24T02:32:31.297Z,25.47
2022-12-24T02:42:40.994Z,27.03
2022-12-24T02:52:48.341Z,27.73
2022-12-24T03:03:11.594Z,27.33
2022-12-24T03:13:19.408Z,28.30
2022-12-24T03:23:26.717Z,30.57
2022-12-24T03:33:29.740Z,33.70
2022-12-24T03:43:38.817Z,35.33
2022-12-24T03:53:45.581Z,49.57
2022-12-24T04:03:49.924Z,30.10
2022-12-24T04:13:52.123Z,33.63
2022-12-24T04:23:56.524Z,41.97
2022-12-24T04:34:01.003Z,32.87
2022-12-24T04:44:05.475Z,30.00
2022-12-24T04:54:07.621Z,22.40
2022-12-24T05:04:11.331Z,19.47
2022-12-24T05:14:13.448Z,17.53
2022-12-24T05:24:34.305Z,24.30
2022-12-24T05:34:36.363Z,23.73
2022-12-24T05:44:40.619Z,22.67
2022-12-24T05:54:47.505Z,21.60
2022-12-24T06:04:49.712Z,22.70
2022-12-24T06:14:54.344Z,18.97
2022-12-24T06:24:56.523Z,11.60
2022-12-24T06:35:00.955Z,14.07
2022-12-24T06:45:08.070Z,21.60
2022-12-24T06:55:10.931Z,21.27
2022-12-24T07:05:13.705Z,20.00
2022-12-24T07:15:17.506Z,25.33
2022-12-24T07:25:19.893Z,18.30
2022-12-24T07:35:24.355Z,19.00
2022-12-24T07:45:29.333Z,17.53
2022-12-24T07:55:33.808Z,15.07
2022-12-24T08:05:38.834Z,14.13
2022-12-24T08:15:44.015Z,19.73
2022-12-24T08:25:50.916Z,18.57
2022-12-24T08:35:54.563Z,14.13
2022-12-24T08:46:08.360Z,12.17
2022-12-24T08:56:11.157Z,10.93
2022-12-24T09:06:21.324Z,14.20
2022-12-24T09:16:23.693Z,9.90
2022-12-24T09:26:30.225Z,11.67
2022-12-24T09:36:39.067Z,16.77
2022-12-24T09:46:43.915Z,14.57
2022-12-24T09:56:47.675Z,14.27
2022-12-24T10:06:55.557Z,11.77
2022-12-24T10:17:23.868Z,11.77
2022-12-24T10:27:31.140Z,14.00
2022-12-24T10:37:33.487Z,15.60
2022-12-24T10:47:39.689Z,15.70
2022-12-24T10:57:48.937Z,15.73
2022-12-24T11:08:02.239Z,16.63
2022-12-24T11:18:06.947Z,13.90
2022-12-24T11:28:25.205Z,19.20
2022-12-24T11:38:29.929Z,14.23
2022-12-24T11:48:35.039Z,15.13
2022-12-24T11:58:45.950Z,15.57
2022-12-24T12:08:55.477Z,15.17
2022-12-24T12:19:05.638Z,19.03
2022-12-24T12:29:32.470Z,13.03
2022-12-24T12:39:37.849Z,19.27
2022-12-24T12:49:43.575Z,15.03
2022-12-24T12:59:54.203Z,12.03
2022-12-24T13:10:31.134Z,15.00
2022-12-24T13:20:37.136Z,17.57
2022-12-24T13:30:40.296Z,20.33
2022-12-24T13:40:44.933Z,22.37
2022-12-24T13:50:52.117Z,23.03
2022-12-24T14:00:59.168Z,18.70
2022-12-24T14:11:10.573Z,19.27
2022-12-24T14:21:36.900Z,23.17
2022-12-24T14:31:56.833Z,27.63
2022-12-24T14:42:21.456Z,25.60
2022-12-24T15:03:04.116Z,22.20
2022-12-24T15:13:37.128Z,21.87
2022-12-24T15:23:51.693Z,23.60
2022-12-24T15:34:29.334Z,20.90
2022-12-24T15:44:39.389Z,21.73
2022-12-24T15:54:55.439Z,19.93
2022-12-24T16:05:40.562Z,24.53
2022-12-24T16:15:45.796Z,29.50
2022-12-24T16:25:53.276Z,18.23
2022-12-24T16:35:58.420Z,30.90
2022-12-24T16:46:05.624Z,26.77
2022-12-24T16:56:22.397Z,18.47
2022-12-24T17:06:31.513Z,27.40
2022-12-24T17:16:34.346Z,30.60
2022-12-24T17:26:37.393Z,26.97
2022-12-24T17:36:40.411Z,24.27
2022-12-24T17:46:43.555Z,23.77
2022-12-24T17:56:46.645Z,27.43
2022-12-24T18:06:56.274Z,30.23
2022-12-24T18:17:03.829Z,27.33
2022-12-24T18:27:08.440Z,30.00
2022-12-24T18:37:13.174Z,23.57
2022-12-24T18:47:23.142Z,14.23
2022-12-24T18:57:25.433Z,11.43
2022-12-24T19:07:30.915Z,21.57
2022-12-24T19:17:33.100Z,14.83
2022-12-24T19:27:35.776Z,24.07
2022-12-24T19:37:39.180Z,23.10
2022-12-24T19:47:43.438Z,18.57
2022-12-24T19:57:50.122Z,15.37
2022-12-24T20:07:52.564Z,9.97
2022-12-24T20:17:58.845Z,21.10
2022-12-24T20:28:08.130Z,23.50
2022-12-24T20:38:22.418Z,20.17
2022-12-24T20:48:32.838Z,19.37
2022-12-24T20:59:06.959Z,22.17
2022-12-24T21:09:09.198Z,22.83
2022-12-24T21:19:16.181Z,22.97
2022-12-24T21:29:22.797Z,22.90
2022-12-24T21:39:24.922Z,20.03
2022-12-24T21:49:51.451Z,17.73
2022-12-24T21:59:55.159Z,20.47
2022-12-24T22:10:15.859Z,24.70
2022-12-24T22:20:18.486Z,20.67
2022-12-24T22:30:22.888Z,24.97
2022-12-24T22:40:30.262Z,21.40
2022-12-24T22:50:32.494Z,21.70
2022-12-24T23:00:49.469Z,25.03
2022-12-24T23:10:56.796Z,17.23
2022-12-24T23:21:07.514Z,25.73
2022-12-24T23:31:15.436Z,24.80
2022-12-24T23:41:19.238Z,18.27
2022-12-24T23:51:25.522Z,23.27
